sensor_id;sensor_type;location;lat;lon;timestamp;temperature;humidity
4050;DHT22;2039;50.894;6.888;2024-01-16T00:01:59;1.90;99.90
4050;DHT22;2039;50.894;6.888;2024-01-16T00:04:25;1.90;99.90
4050;DHT22;2039;50.894;6.888;2024-01-16T00:06:52;1.90;99.90
4050;DHT22;2039;50.894;6.888;2024-01-16T00:09:18;1.90;99.90
4050;DHT22;2039;50.894;6.888;2024-01-16T00:11:43;1.90;99.90
4050;DHT22;2039;50.894;6.888;2024-01-16T00:14:09;1.90;99.90
4050;DHT22;2039;50.894;6.888;2024-01-16T00:16:47;1.90;99.90
4050;DHT22;2039;50.894;6.888;2024-01-16T00:19:14;1.80;99.90
4050;DHT22;2039;50.894;6.888;2024-01-16T00:21:43;1.90;99.90
4050;DHT22;2039;50.894;6.888;2024-01-16T00:24:15;1.90;99.90
4050;DHT22;2039;50.894;6.888;2024-01-16T00:26:41;1.80;99.90
4050;DHT22;2039;50.894;6.888;2024-01-16T00:29:07;1.80;99.90
4050;DHT22;2039;50.894;6.888;2024-01-16T00:31:34;1.70;99.90
4050;DHT22;2039;50.894;6.888;2024-01-16T00:34:00;1.80;99.90
4050;DHT22;2039;50.894;6.888;2024-01-16T00:36:26;1.80;99.90
4050;DHT22;2039;50.894;6.888;2024-01-16T00:38:52;1.80;99.90
4050;DHT22;2039;50.894;6.888;2024-01-16T00:41:17;1.80;99.90
4050;DHT22;2039;50.894;6.888;2024-01-16T00:43:44;1.80;99.90
4050;DHT22;2039;50.894;6.888;2024-01-16T00:46:09;1.70;99.90
4050;DHT22;2039;50.894;6.888;2024-01-16T00:48:35;1.80;99.90
4050;DHT22;2039;50.894;6.888;2024-01-16T00:51:01;1.70;99.90
4050;DHT22;2039;50.894;6.888;2024-01-16T00:53:27;1.70;99.90
4050;DHT22;2039;50.894;6.888;2024-01-16T00:55:53;1.70;99.90
4050;DHT22;2039;50.894;6.888;2024-01-16T00:58:23;1.70;99.90
4050;DHT22;2039;50.894;6.888;2024-01-16T01:00:49;1.70;99.90
4050;DHT22;2039;50.894;6.888;2024-01-16T01:03:15;1.70;99.90
4050;DHT22;2039;50.894;6.888;2024-01-16T01:05:40;1.60;99.90
4050;DHT22;2039;50.894;6.888;2024-01-16T01:08:06;1.70;99.90
4050;DHT22;2039;50.894;6.888;2024-01-16T01:10:33;1.70;99.90
4050;DHT22;2039;50.894;6.888;2024-01-16T01:12:58;1.70;99.90
4050;DHT22;2039;50.894;6.888;2024-01-16T01:15:24;1.60;99.90
4050;DHT22;2039;50.894;6.888;2024-01-16T01:17:53;1.60;99.90
4050;DHT22;2039;50.894;6.888;2024-01-16T01:20:19;1.60;99.90
4050;DHT22;2039;50.894;6.888;2024-01-16T01:22:46;1.70;99.90
4050;DHT22;2039;50.894;6.888;2024-01-16T01:25:12;1.60;99.90
4050;DHT22;2039;50.894;6.888;2024-01-16T01:27:38;1.70;99.90
4050;DHT22;2039;50.894;6.888;2024-01-16T01:30:08;1.70;99.90
4050;DHT22;2039;50.894;6.888;2024-01-16T01:32:37;1.70;99.90
4050;DHT22;2039;50.894;6.888;2024-01-16T01:35:04;1.70;99.90
4050;DHT22;2039;50.894;6.888;2024-01-16T01:37:29;1.70;99.90
4050;DHT22;2039;50.894;6.888;2024-01-16T01:39:55;1.70;99.90
4050;DHT22;2039;50.894;6.888;2024-01-16T01:42:21;1.70;99.90
4050;DHT22;2039;50.894;6.888;2024-01-16T01:44:47;1.60;99.90
4050;DHT22;2039;50.894;6.888;2024-01-16T01:47:13;1.60;99.90
4050;DHT22;2039;50.894;6.888;2024-01-16T01:49:39;1.60;99.90
4050;DHT22;2039;50.894;6.888;2024-01-16T01:52:06;1.60;99.90
4050;DHT22;2039;50.894;6.888;2024-01-16T01:54:35;1.60;99.90
4050;DHT22;2039;50.894;6.888;2024-01-16T01:57:02;1.60;99.90
4050;DHT22;2039;50.894;6.888;2024-01-16T01:59:29;1.60;99.90
4050;DHT22;2039;50.894;6.888;2024-01-16T02:01:55;1.60;99.90
4050;DHT22;2039;50.894;6.888;2024-01-16T02:04:22;1.60;99.90
4050;DHT22;2039;50.894;6.888;2024-01-16T02:06:48;1.50;99.90
4050;DHT22;2039;50.894;6.888;2024-01-16T02:09:14;1.50;99.90
4050;DHT22;2039;50.894;6.888;2024-01-16T02:11:43;1.50;99.90
4050;DHT22;2039;50.894;6.888;2024-01-16T02:14:09;1.50;99.90
4050;DHT22;2039;50.894;6.888;2024-01-16T02:16:42;1.50;99.90
4050;DHT22;2039;50.894;6.888;2024-01-16T02:19:10;1.40;99.90
4050;DHT22;2039;50.894;6.888;2024-01-16T02:21:46;1.50;99.90
4050;DHT22;2039;50.894;6.888;2024-01-16T02:24:14;1.50;99.90
4050;DHT22;2039;50.894;6.888;2024-01-16T02:26:40;1.50;99.90
4050;DHT22;2039;50.894;6.888;2024-01-16T02:29:06;1.50;99.90
4050;DHT22;2039;50.894;6.888;2024-01-16T02:31:33;1.50;99.90
4050;DHT22;2039;50.894;6.888;2024-01-16T02:33:59;1.50;99.90
4050;DHT22;2039;50.894;6.888;2024-01-16T02:36:28;1.50;99.90
4050;DHT22;2039;50.894;6.888;2024-01-16T02:38:54;1.50;99.90
4050;DHT22;2039;50.894;6.888;2024-01-16T02:41:20;1.50;99.90
4050;DHT22;2039;50.894;6.888;2024-01-16T02:43:46;1.50;99.90
4050;DHT22;2039;50.894;6.888;2024-01-16T02:46:13;1.50;99.90
4050;DHT22;2039;50.894;6.888;2024-01-16T02:48:39;1.50;99.90
4050;DHT22;2039;50.894;6.888;2024-01-16T02:51:05;1.50;99.90
4050;DHT22;2039;50.894;6.888;2024-01-16T02:53:31;1.60;99.90
4050;DHT22;2039;50.894;6.888;2024-01-16T02:55:57;1.50;99.90
4050;DHT22;2039;50.894;6.888;2024-01-16T02:58:26;1.50;99.90
4050;DHT22;2039;50.894;6.888;2024-01-16T03:00:52;1.50;99.90
4050;DHT22;2039;50.894;6.888;2024-01-16T03:03:18;1.50;99.90
4050;DHT22;2039;50.894;6.888;2024-01-16T03:05:44;1.50;99.90
4050;DHT22;2039;50.894;6.888;2024-01-16T03:08:10;1.50;99.90
4050;DHT22;2039;50.894;6.888;2024-01-16T03:10:35;1.50;99.90
4050;DHT22;2039;50.894;6.888;2024-01-16T03:13:01;1.50;99.90
4050;DHT22;2039;50.894;6.888;2024-01-16T03:15:28;1.50;99.90
4050;DHT22;2039;50.894;6.888;2024-01-16T03:17:59;1.50;99.90
4050;DHT22;2039;50.894;6.888;2024-01-16T03:20:25;1.50;99.90
4050;DHT22;2039;50.894;6.888;2024-01-16T03:22:51;1.50;99.90
4050;DHT22;2039;50.894;6.888;2024-01-16T03:25:17;1.50;99.90
4050;DHT22;2039;50.894;6.888;2024-01-16T03:27:43;1.50;99.90
4050;DHT22;2039;50.894;6.888;2024-01-16T03:30:10;1.50;99.90
4050;DHT22;2039;50.894;6.888;2024-01-16T03:32:36;1.50;99.90
4050;DHT22;2039;50.894;6.888;2024-01-16T03:35:03;1.60;99.90
4050;DHT22;2039;50.894;6.888;2024-01-16T03:37:28;1.50;99.90
4050;DHT22;2039;50.894;6.888;2024-01-16T03:39:54;1.50;99.90
4050;DHT22;2039;50.894;6.888;2024-01-16T03:42:20;1.50;99.90
4050;DHT22;2039;50.894;6.888;2024-01-16T03:44:46;1.50;99.90
4050;DHT22;2039;50.894;6.888;2024-01-16T03:47:12;1.50;99.90
4050;DHT22;2039;50.894;6.888;2024-01-16T03:49:38;1.50;99.90
4050;DHT22;2039;50.894;6.888;2024-01-16T03:52:04;1.50;99.90
4050;DHT22;2039;50.894;6.888;2024-01-16T03:54:30;1.50;99.90
4050;DHT22;2039;50.894;6.888;2024-01-16T03:56:56;1.50;99.90
4050;DHT22;2039;50.894;6.888;2024-01-16T03:59:21;1.50;99.90
4050;DHT22;2039;50.894;6.888;2024-01-16T04:01:47;1.50;99.90
4050;DHT22;2039;50.894;6.888;2024-01-16T04:04:15;1.50;99.90
4050;DHT22;2039;50.894;6.888;2024-01-16T04:06:40;1.40;99.90
4050;DHT22;2039;50.894;6.888;2024-01-16T04:09:07;1.40;99.90
4050;DHT22;2039;50.894;6.888;2024-01-16T04:11:33;1.40;99.90
4050;DHT22;2039;50.894;6.888;2024-01-16T04:13:59;1.40;99.90
4050;DHT22;2039;50.894;6.888;2024-01-16T04:16:25;1.40;99.90
4050;DHT22;2039;50.894;6.888;2024-01-16T04:18:51;1.40;99.90
4050;DHT22;2039;50.894;6.888;2024-01-16T04:21:17;1.40;99.90
4050;DHT22;2039;50.894;6.888;2024-01-16T04:23:42;1.30;99.90
4050;DHT22;2039;50.894;6.888;2024-01-16T04:26:08;1.40;99.90
4050;DHT22;2039;50.894;6.888;2024-01-16T04:28:34;1.40;99.90
4050;DHT22;2039;50.894;6.888;2024-01-16T04:31:00;1.40;99.90
4050;DHT22;2039;50.894;6.888;2024-01-16T04:33:27;1.40;99.90
4050;DHT22;2039;50.894;6.888;2024-01-16T04:35:52;1.40;99.90
4050;DHT22;2039;50.894;6.888;2024-01-16T04:38:18;1.40;99.90
4050;DHT22;2039;50.894;6.888;2024-01-16T04:40:44;1.40;99.90
4050;DHT22;2039;50.894;6.888;2024-01-16T04:43:09;1.40;99.90
4050;DHT22;2039;50.894;6.888;2024-01-16T04:45:35;1.40;99.90
4050;DHT22;2039;50.894;6.888;2024-01-16T04:48:01;1.40;99.90
4050;DHT22;2039;50.894;6.888;2024-01-16T04:50:27;1.40;99.90
4050;DHT22;2039;50.894;6.888;2024-01-16T04:52:57;1.40;99.90
4050;DHT22;2039;50.894;6.888;2024-01-16T04:55:27;1.40;99.90
4050;DHT22;2039;50.894;6.888;2024-01-16T04:57:54;1.40;99.90
4050;DHT22;2039;50.894;6.888;2024-01-16T05:00:20;1.40;99.90
4050;DHT22;2039;50.894;6.888;2024-01-16T05:02:46;1.50;99.90
4050;DHT22;2039;50.894;6.888;2024-01-16T05:05:12;1.40;99.90
4050;DHT22;2039;50.894;6.888;2024-01-16T05:07:38;1.40;99.90
4050;DHT22;2039;50.894;6.888;2024-01-16T05:10:04;1.40;99.90
4050;DHT22;2039;50.894;6.888;2024-01-16T05:12:31;1.40;99.90
4050;DHT22;2039;50.894;6.888;2024-01-16T05:14:57;1.40;99.90
4050;DHT22;2039;50.894;6.888;2024-01-16T05:17:23;1.30;99.90
4050;DHT22;2039;50.894;6.888;2024-01-16T05:19:49;1.30;99.90
4050;DHT22;2039;50.894;6.888;2024-01-16T05:22:14;1.40;99.90
4050;DHT22;2039;50.894;6.888;2024-01-16T05:24:41;1.40;99.90
4050;DHT22;2039;50.894;6.888;2024-01-16T05:27:06;1.30;99.90
4050;DHT22;2039;50.894;6.888;2024-01-16T05:29:32;1.40;99.90
4050;DHT22;2039;50.894;6.888;2024-01-16T05:31:57;1.40;99.90
4050;DHT22;2039;50.894;6.888;2024-01-16T05:34:23;1.40;99.90
4050;DHT22;2039;50.894;6.888;2024-01-16T05:36:49;1.40;99.90
4050;DHT22;2039;50.894;6.888;2024-01-16T05:39:15;1.40;99.90
4050;DHT22;2039;50.894;6.888;2024-01-16T05:41:42;1.40;99.90
4050;DHT22;2039;50.894;6.888;2024-01-16T05:44:08;1.40;99.90
4050;DHT22;2039;50.894;6.888;2024-01-16T05:46:33;1.40;99.90
4050;DHT22;2039;50.894;6.888;2024-01-16T05:48:59;1.40;99.90
4050;DHT22;2039;50.894;6.888;2024-01-16T05:51:27;1.40;99.90
4050;DHT22;2039;50.894;6.888;2024-01-16T05:53:53;1.40;99.90
4050;DHT22;2039;50.894;6.888;2024-01-16T05:56:19;1.40;99.90
4050;DHT22;2039;50.894;6.888;2024-01-16T05:58:45;1.40;99.90
4050;DHT22;2039;50.894;6.888;2024-01-16T06:01:11;1.40;99.90
4050;DHT22;2039;50.894;6.888;2024-01-16T06:03:39;1.40;99.90
4050;DHT22;2039;50.894;6.888;2024-01-16T06:06:05;1.40;99.90
4050;DHT22;2039;50.894;6.888;2024-01-16T06:08:31;1.40;99.90
4050;DHT22;2039;50.894;6.888;2024-01-16T06:10:56;1.40;99.90
4050;DHT22;2039;50.894;6.888;2024-01-16T06:13:22;1.40;99.90
4050;DHT22;2039;50.894;6.888;2024-01-16T06:15:48;1.40;99.90
4050;DHT22;2039;50.894;6.888;2024-01-16T06:18:14;1.40;99.90
4050;DHT22;2039;50.894;6.888;2024-01-16T06:20:39;1.40;99.90
4050;DHT22;2039;50.894;6.888;2024-01-16T06:23:05;1.40;99.90
4050;DHT22;2039;50.894;6.888;2024-01-16T06:25:31;1.40;99.90
4050;DHT22;2039;50.894;6.888;2024-01-16T06:27:56;1.40;99.90
4050;DHT22;2039;50.894;6.888;2024-01-16T06:30:22;1.40;99.90
4050;DHT22;2039;50.894;6.888;2024-01-16T06:32:49;1.40;99.90
4050;DHT22;2039;50.894;6.888;2024-01-16T06:35:15;1.40;99.90
4050;DHT22;2039;50.894;6.888;2024-01-16T06:37:42;1.30;99.90
4050;DHT22;2039;50.894;6.888;2024-01-16T06:40:08;1.40;99.90
4050;DHT22;2039;50.894;6.888;2024-01-16T06:42:34;1.40;99.90
4050;DHT22;2039;50.894;6.888;2024-01-16T06:45:01;1.40;99.90
4050;DHT22;2039;50.894;6.888;2024-01-16T06:47:27;1.40;99.90
4050;DHT22;2039;50.894;6.888;2024-01-16T06:49:53;1.40;99.90
4050;DHT22;2039;50.894;6.888;2024-01-16T06:52:19;1.40;99.90
4050;DHT22;2039;50.894;6.888;2024-01-16T06:54:44;1.40;99.90
4050;DHT22;2039;50.894;6.888;2024-01-16T06:57:10;1.50;99.90
4050;DHT22;2039;50.894;6.888;2024-01-16T06:59:36;1.40;99.90
4050;DHT22;2039;50.894;6.888;2024-01-16T07:02:02;1.50;99.90
4050;DHT22;2039;50.894;6.888;2024-01-16T07:04:28;1.40;99.90
4050;DHT22;2039;50.894;6.888;2024-01-16T07:06:54;1.40;99.90
4050;DHT22;2039;50.894;6.888;2024-01-16T07:09:20;1.40;99.90
4050;DHT22;2039;50.894;6.888;2024-01-16T07:11:47;1.40;99.90
4050;DHT22;2039;50.894;6.888;2024-01-16T07:14:12;1.40;99.90
4050;DHT22;2039;50.894;6.888;2024-01-16T07:16:38;1.40;99.90
4050;DHT22;2039;50.894;6.888;2024-01-16T07:19:04;1.40;99.90
4050;DHT22;2039;50.894;6.888;2024-01-16T07:21:30;1.50;99.90
4050;DHT22;2039;50.894;6.888;2024-01-16T07:23:56;1.50;99.90
4050;DHT22;2039;50.894;6.888;2024-01-16T07:26:23;1.40;99.90
4050;DHT22;2039;50.894;6.888;2024-01-16T07:28:49;1.40;99.90
4050;DHT22;2039;50.894;6.888;2024-01-16T07:31:15;1.40;99.90
4050;DHT22;2039;50.894;6.888;2024-01-16T07:33:42;1.40;99.90
4050;DHT22;2039;50.894;6.888;2024-01-16T07:36:08;1.50;99.90
4050;DHT22;2039;50.894;6.888;2024-01-16T07:38:35;1.40;99.90
4050;DHT22;2039;50.894;6.888;2024-01-16T07:41:01;1.50;99.90
4050;DHT22;2039;50.894;6.888;2024-01-16T07:43:27;1.50;99.90
4050;DHT22;2039;50.894;6.888;2024-01-16T07:45:57;1.50;99.90
4050;DHT22;2039;50.894;6.888;2024-01-16T07:48:23;1.50;99.90
4050;DHT22;2039;50.894;6.888;2024-01-16T07:50:49;1.50;99.90
4050;DHT22;2039;50.894;6.888;2024-01-16T07:53:15;1.50;99.90
4050;DHT22;2039;50.894;6.888;2024-01-16T07:55:42;1.50;99.90
4050;DHT22;2039;50.894;6.888;2024-01-16T07:58:09;1.40;99.90
4050;DHT22;2039;50.894;6.888;2024-01-16T08:00:35;1.40;99.90
4050;DHT22;2039;50.894;6.888;2024-01-16T08:03:00;1.40;99.90
4050;DHT22;2039;50.894;6.888;2024-01-16T08:05:26;1.30;99.90
4050;DHT22;2039;50.894;6.888;2024-01-16T08:07:53;1.30;99.90
4050;DHT22;2039;50.894;6.888;2024-01-16T08:10:19;1.30;99.90
4050;DHT22;2039;50.894;6.888;2024-01-16T08:12:45;1.30;99.90
4050;DHT22;2039;50.894;6.888;2024-01-16T08:15:11;1.40;99.90
4050;DHT22;2039;50.894;6.888;2024-01-16T08:17:37;1.30;99.90
4050;DHT22;2039;50.894;6.888;2024-01-16T08:20:02;1.30;99.90
4050;DHT22;2039;50.894;6.888;2024-01-16T08:22:28;1.30;99.90
4050;DHT22;2039;50.894;6.888;2024-01-16T08:24:54;1.30;99.90
4050;DHT22;2039;50.894;6.888;2024-01-16T08:27:20;1.30;99.90
4050;DHT22;2039;50.894;6.888;2024-01-16T08:29:46;1.40;99.90
4050;DHT22;2039;50.894;6.888;2024-01-16T08:32:15;1.50;99.90
4050;DHT22;2039;50.894;6.888;2024-01-16T08:34:42;1.40;99.90
4050;DHT22;2039;50.894;6.888;2024-01-16T08:37:08;1.50;99.90
4050;DHT22;2039;50.894;6.888;2024-01-16T08:39:33;1.50;99.90
4050;DHT22;2039;50.894;6.888;2024-01-16T08:41:59;1.50;99.90
4050;DHT22;2039;50.894;6.888;2024-01-16T08:44:27;1.50;99.90
4050;DHT22;2039;50.894;6.888;2024-01-16T08:46:53;1.40;99.90
4050;DHT22;2039;50.894;6.888;2024-01-16T08:49:18;1.50;99.90
4050;DHT22;2039;50.894;6.888;2024-01-16T08:51:44;1.50;99.90
4050;DHT22;2039;50.894;6.888;2024-01-16T08:54:10;1.50;99.90
4050;DHT22;2039;50.894;6.888;2024-01-16T08:56:36;1.50;99.90
4050;DHT22;2039;50.894;6.888;2024-01-16T08:59:02;1.40;99.90
4050;DHT22;2039;50.894;6.888;2024-01-16T09:01:27;1.40;99.90
4050;DHT22;2039;50.894;6.888;2024-01-16T09:03:53;1.50;99.90
4050;DHT22;2039;50.894;6.888;2024-01-16T09:06:19;1.60;99.90
4050;DHT22;2039;50.894;6.888;2024-01-16T09:08:44;1.50;99.90
4050;DHT22;2039;50.894;6.888;2024-01-16T09:11:10;1.50;99.90
4050;DHT22;2039;50.894;6.888;2024-01-16T09:13:37;1.60;99.90
4050;DHT22;2039;50.894;6.888;2024-01-16T09:16:03;1.60;99.90
4050;DHT22;2039;50.894;6.888;2024-01-16T09:18:29;1.70;99.90
4050;DHT22;2039;50.894;6.888;2024-01-16T09:20:55;1.70;99.90
4050;DHT22;2039;50.894;6.888;2024-01-16T09:23:21;1.80;99.90
4050;DHT22;2039;50.894;6.888;2024-01-16T09:25:46;1.80;99.90
4050;DHT22;2039;50.894;6.888;2024-01-16T09:28:12;1.80;99.90
4050;DHT22;2039;50.894;6.888;2024-01-16T09:30:38;1.90;99.90
4050;DHT22;2039;50.894;6.888;2024-01-16T09:33:04;1.80;99.90
4050;DHT22;2039;50.894;6.888;2024-01-16T09:35:32;1.90;99.90
4050;DHT22;2039;50.894;6.888;2024-01-16T09:37:58;1.80;99.90
4050;DHT22;2039;50.894;6.888;2024-01-16T09:40:25;1.80;99.90
4050;DHT22;2039;50.894;6.888;2024-01-16T09:42:51;1.90;99.90
4050;DHT22;2039;50.894;6.888;2024-01-16T09:45:20;1.90;99.90
4050;DHT22;2039;50.894;6.888;2024-01-16T09:47:50;1.90;99.90
4050;DHT22;2039;50.894;6.888;2024-01-16T09:50:16;2.00;99.90
4050;DHT22;2039;50.894;6.888;2024-01-16T09:52:46;2.00;99.90
4050;DHT22;2039;50.894;6.888;2024-01-16T09:55:12;2.00;99.90
4050;DHT22;2039;50.894;6.888;2024-01-16T09:57:39;1.90;99.90
4050;DHT22;2039;50.894;6.888;2024-01-16T10:00:08;2.00;99.90
4050;DHT22;2039;50.894;6.888;2024-01-16T10:02:38;2.10;99.90
4050;DHT22;2039;50.894;6.888;2024-01-16T10:05:05;2.20;99.90
4050;DHT22;2039;50.894;6.888;2024-01-16T10:07:31;2.20;99.90
4050;DHT22;2039;50.894;6.888;2024-01-16T10:09:59;2.10;99.90
4050;DHT22;2039;50.894;6.888;2024-01-16T10:12:25;2.20;99.90
4050;DHT22;2039;50.894;6.888;2024-01-16T10:14:51;2.20;99.90
4050;DHT22;2039;50.894;6.888;2024-01-16T10:17:17;2.10;99.90
4050;DHT22;2039;50.894;6.888;2024-01-16T10:19:51;1.90;99.90
4050;DHT22;2039;50.894;6.888;2024-01-16T10:22:22;1.90;99.90
4050;DHT22;2039;50.894;6.888;2024-01-16T10:27:31;2.20;99.90
4050;DHT22;2039;50.894;6.888;2024-01-16T10:29:58;2.30;99.90
4050;DHT22;2039;50.894;6.888;2024-01-16T10:32:27;2.40;99.90
4050;DHT22;2039;50.894;6.888;2024-01-16T10:35:15;2.40;99.90
4050;DHT22;2039;50.894;6.888;2024-01-16T10:37:47;2.10;99.90
4050;DHT22;2039;50.894;6.888;2024-01-16T10:40:24;2.10;99.90
4050;DHT22;2039;50.894;6.888;2024-01-16T10:43:02;2.20;99.90
4050;DHT22;2039;50.894;6.888;2024-01-16T10:45:34;2.10;99.90
4050;DHT22;2039;50.894;6.888;2024-01-16T10:48:03;2.10;99.90
4050;DHT22;2039;50.894;6.888;2024-01-16T10:50:30;2.20;99.90
4050;DHT22;2039;50.894;6.888;2024-01-16T10:52:59;2.20;99.90
4050;DHT22;2039;50.894;6.888;2024-01-16T10:55:28;2.10;99.90
4050;DHT22;2039;50.894;6.888;2024-01-16T10:57:56;2.30;99.90
4050;DHT22;2039;50.894;6.888;2024-01-16T11:00:24;2.40;99.90
4050;DHT22;2039;50.894;6.888;2024-01-16T11:03:19;2.50;99.90
4050;DHT22;2039;50.894;6.888;2024-01-16T11:05:50;2.50;99.90
4050;DHT22;2039;50.894;6.888;2024-01-16T11:08:16;2.60;99.90
4050;DHT22;2039;50.894;6.888;2024-01-16T11:10:43;2.60;97.50
4050;DHT22;2039;50.894;6.888;2024-01-16T11:13:10;2.60;99.90
4050;DHT22;2039;50.894;6.888;2024-01-16T11:15:38;2.50;98.90
4050;DHT22;2039;50.894;6.888;2024-01-16T11:18:04;2.50;99.90
4050;DHT22;2039;50.894;6.888;2024-01-16T11:20:32;2.50;98.10
4050;DHT22;2039;50.894;6.888;2024-01-16T11:22:58;2.50;99.60
4050;DHT22;2039;50.894;6.888;2024-01-16T11:25:33;2.50;99.90
4050;DHT22;2039;50.894;6.888;2024-01-16T11:28:09;2.50;99.90
4050;DHT22;2039;50.894;6.888;2024-01-16T11:30:35;2.50;99.90
4050;DHT22;2039;50.894;6.888;2024-01-16T11:33:01;2.60;99.90
4050;DHT22;2039;50.894;6.888;2024-01-16T11:35:38;2.60;96.80
4050;DHT22;2039;50.894;6.888;2024-01-16T11:38:11;2.50;95.60
4050;DHT22;2039;50.894;6.888;2024-01-16T11:40:39;2.50;94.80
4050;DHT22;2039;50.894;6.888;2024-01-16T11:46:03;2.60;92.70
4050;DHT22;2039;50.894;6.888;2024-01-16T11:48:29;2.60;94.80
4050;DHT22;2039;50.894;6.888;2024-01-16T11:50:55;2.60;92.30
4050;DHT22;2039;50.894;6.888;2024-01-16T11:53:37;2.60;89.00
4050;DHT22;2039;50.894;6.888;2024-01-16T11:58:48;2.50;43.40
4050;DHT22;2039;50.894;6.888;2024-01-16T12:01:19;2.50;43.60
4050;DHT22;2039;50.894;6.888;2024-01-16T12:06:31;2.50;17.30
4050;DHT22;2039;50.894;6.888;2024-01-16T12:09:17;2.40;1.00
4050;DHT22;2039;50.894;6.888;2024-01-16T12:11:44;2.40;1.00
4050;DHT22;2039;50.894;6.888;2024-01-16T12:14:20;2.30;1.00
4050;DHT22;2039;50.894;6.888;2024-01-16T12:16:46;2.20;1.00
4050;DHT22;2039;50.894;6.888;2024-01-16T12:19:13;2.20;1.00
4050;DHT22;2039;50.894;6.888;2024-01-16T12:24:05;2.20;1.00
4050;DHT22;2039;50.894;6.888;2024-01-16T12:26:31;2.10;1.00
4050;DHT22;2039;50.894;6.888;2024-01-16T12:28:59;2.20;1.00
4050;DHT22;2039;50.894;6.888;2024-01-16T12:31:26;2.10;1.00
4050;DHT22;2039;50.894;6.888;2024-01-16T12:33:52;2.20;1.00
4050;DHT22;2039;50.894;6.888;2024-01-16T12:36:17;2.10;1.00
4050;DHT22;2039;50.894;6.888;2024-01-16T12:38:43;2.20;1.00
4050;DHT22;2039;50.894;6.888;2024-01-16T12:41:10;2.30;1.00
4050;DHT22;2039;50.894;6.888;2024-01-16T12:43:37;2.20;1.00
4050;DHT22;2039;50.894;6.888;2024-01-16T12:46:03;2.10;1.00
4050;DHT22;2039;50.894;6.888;2024-01-16T12:48:29;2.10;1.00
4050;DHT22;2039;50.894;6.888;2024-01-16T12:51:02;2.10;1.00
4050;DHT22;2039;50.894;6.888;2024-01-16T12:53:28;2.10;1.00
4050;DHT22;2039;50.894;6.888;2024-01-16T12:55:58;2.10;1.00
4050;DHT22;2039;50.894;6.888;2024-01-16T12:58:36;2.10;1.00
4050;DHT22;2039;50.894;6.888;2024-01-16T13:01:21;2.20;1.00
4050;DHT22;2039;50.894;6.888;2024-01-16T13:03:47;2.20;1.00
4050;DHT22;2039;50.894;6.888;2024-01-16T13:06:18;2.20;1.00
4050;DHT22;2039;50.894;6.888;2024-01-16T13:08:50;2.20;1.00
4050;DHT22;2039;50.894;6.888;2024-01-16T13:11:16;2.20;1.00
4050;DHT22;2039;50.894;6.888;2024-01-16T13:13:48;2.10;1.00
4050;DHT22;2039;50.894;6.888;2024-01-16T13:16:14;2.10;1.00
4050;DHT22;2039;50.894;6.888;2024-01-16T13:18:40;2.00;1.00
4050;DHT22;2039;50.894;6.888;2024-01-16T13:21:06;2.00;1.00
4050;DHT22;2039;50.894;6.888;2024-01-16T13:23:32;2.00;1.00
4050;DHT22;2039;50.894;6.888;2024-01-16T13:25:57;1.90;1.00
4050;DHT22;2039;50.894;6.888;2024-01-16T13:28:28;2.00;1.00
4050;DHT22;2039;50.894;6.888;2024-01-16T13:30:54;1.90;1.00
4050;DHT22;2039;50.894;6.888;2024-01-16T13:33:25;2.00;1.00
4050;DHT22;2039;50.894;6.888;2024-01-16T13:35:53;2.00;1.00
4050;DHT22;2039;50.894;6.888;2024-01-16T13:38:20;1.90;1.00
4050;DHT22;2039;50.894;6.888;2024-01-16T13:40:46;1.90;1.00
4050;DHT22;2039;50.894;6.888;2024-01-16T13:43:12;2.00;1.00
4050;DHT22;2039;50.894;6.888;2024-01-16T13:45:38;1.90;1.00
4050;DHT22;2039;50.894;6.888;2024-01-16T13:48:05;2.00;1.00
4050;DHT22;2039;50.894;6.888;2024-01-16T13:50:33;2.00;1.00
4050;DHT22;2039;50.894;6.888;2024-01-16T13:53:00;2.00;1.00
4050;DHT22;2039;50.894;6.888;2024-01-16T13:55:27;1.90;1.00
4050;DHT22;2039;50.894;6.888;2024-01-16T13:57:53;2.00;1.00
4050;DHT22;2039;50.894;6.888;2024-01-16T14:00:18;2.10;1.00
4050;DHT22;2039;50.894;6.888;2024-01-16T14:02:46;2.00;1.00
4050;DHT22;2039;50.894;6.888;2024-01-16T14:05:13;2.10;1.00
4050;DHT22;2039;50.894;6.888;2024-01-16T14:07:50;2.00;1.00
4050;DHT22;2039;50.894;6.888;2024-01-16T14:10:20;2.00;1.00
4050;DHT22;2039;50.894;6.888;2024-01-16T14:12:48;2.00;1.00
4050;DHT22;2039;50.894;6.888;2024-01-16T14:15:15;2.00;1.00
4050;DHT22;2039;50.894;6.888;2024-01-16T14:17:45;2.00;1.00
4050;DHT22;2039;50.894;6.888;2024-01-16T14:20:12;2.10;1.00
4050;DHT22;2039;50.894;6.888;2024-01-16T14:22:38;2.10;1.00
4050;DHT22;2039;50.894;6.888;2024-01-16T14:25:09;2.00;1.00
4050;DHT22;2039;50.894;6.888;2024-01-16T14:27:43;2.10;1.00
4050;DHT22;2039;50.894;6.888;2024-01-16T14:30:14;2.00;1.00
4050;DHT22;2039;50.894;6.888;2024-01-16T14:32:41;2.00;1.00
4050;DHT22;2039;50.894;6.888;2024-01-16T14:35:07;2.20;1.00
4050;DHT22;2039;50.894;6.888;2024-01-16T14:37:38;2.20;1.00
4050;DHT22;2039;50.894;6.888;2024-01-16T14:40:05;2.20;1.00
4050;DHT22;2039;50.894;6.888;2024-01-16T14:42:41;2.10;1.00
4050;DHT22;2039;50.894;6.888;2024-01-16T14:45:07;2.10;1.00
4050;DHT22;2039;50.894;6.888;2024-01-16T14:47:34;2.10;1.00
4050;DHT22;2039;50.894;6.888;2024-01-16T14:50:00;2.00;1.00
4050;DHT22;2039;50.894;6.888;2024-01-16T14:52:25;1.90;1.00
4050;DHT22;2039;50.894;6.888;2024-01-16T14:54:51;1.90;1.00
4050;DHT22;2039;50.894;6.888;2024-01-16T14:57:18;1.90;1.00
4050;DHT22;2039;50.894;6.888;2024-01-16T14:59:44;1.80;1.00
4050;DHT22;2039;50.894;6.888;2024-01-16T15:02:13;1.90;1.00
4050;DHT22;2039;50.894;6.888;2024-01-16T15:04:39;1.80;1.00
4050;DHT22;2039;50.894;6.888;2024-01-16T15:07:05;1.70;1.00
4050;DHT22;2039;50.894;6.888;2024-01-16T15:09:31;1.60;1.00
4050;DHT22;2039;50.894;6.888;2024-01-16T15:12:01;1.60;1.00
4050;DHT22;2039;50.894;6.888;2024-01-16T15:14:27;1.50;1.00
4050;DHT22;2039;50.894;6.888;2024-01-16T15:16:54;1.40;1.00
4050;DHT22;2039;50.894;6.888;2024-01-16T15:19:19;1.40;1.00
4050;DHT22;2039;50.894;6.888;2024-01-16T15:21:45;1.40;1.00
4050;DHT22;2039;50.894;6.888;2024-01-16T15:24:12;1.40;1.00
4050;DHT22;2039;50.894;6.888;2024-01-16T15:26:41;1.40;1.00
4050;DHT22;2039;50.894;6.888;2024-01-16T15:29:07;1.30;1.00
4050;DHT22;2039;50.894;6.888;2024-01-16T15:31:35;1.30;1.00
4050;DHT22;2039;50.894;6.888;2024-01-16T15:34:01;1.30;1.00
4050;DHT22;2039;50.894;6.888;2024-01-16T15:36:26;1.30;1.00
4050;DHT22;2039;50.894;6.888;2024-01-16T15:38:52;1.30;1.00
4050;DHT22;2039;50.894;6.888;2024-01-16T15:41:17;1.20;1.00
4050;DHT22;2039;50.894;6.888;2024-01-16T15:43:43;1.20;1.00
4050;DHT22;2039;50.894;6.888;2024-01-16T15:46:09;1.20;1.00
4050;DHT22;2039;50.894;6.888;2024-01-16T15:48:37;1.20;1.00
4050;DHT22;2039;50.894;6.888;2024-01-16T15:51:03;1.10;1.00
4050;DHT22;2039;50.894;6.888;2024-01-16T15:53:33;1.00;1.00
4050;DHT22;2039;50.894;6.888;2024-01-16T15:56:00;1.00;1.00
4050;DHT22;2039;50.894;6.888;2024-01-16T15:58:25;0.90;1.00
4050;DHT22;2039;50.894;6.888;2024-01-16T16:00:51;0.90;1.00
4050;DHT22;2039;50.894;6.888;2024-01-16T16:03:17;0.80;1.00
4050;DHT22;2039;50.894;6.888;2024-01-16T16:05:43;0.80;1.00
4050;DHT22;2039;50.894;6.888;2024-01-16T16:08:09;0.70;1.00
4050;DHT22;2039;50.894;6.888;2024-01-16T16:10:35;0.60;1.00
4050;DHT22;2039;50.894;6.888;2024-01-16T16:13:01;0.60;1.00
4050;DHT22;2039;50.894;6.888;2024-01-16T16:15:28;0.50;1.00
4050;DHT22;2039;50.894;6.888;2024-01-16T16:17:54;0.40;1.00
4050;DHT22;2039;50.894;6.888;2024-01-16T16:20:20;0.30;1.60
4050;DHT22;2039;50.894;6.888;2024-01-16T16:22:50;0.30;2.90
4050;DHT22;2039;50.894;6.888;2024-01-16T16:25:16;0.20;6.70
4050;DHT22;2039;50.894;6.888;2024-01-16T16:27:43;0.20;10.70
4050;DHT22;2039;50.894;6.888;2024-01-16T16:30:10;0.10;13.90
4050;DHT22;2039;50.894;6.888;2024-01-16T16:32:38;0.00;15.40
4050;DHT22;2039;50.894;6.888;2024-01-16T16:35:04;0.00;21.20